Palm Springs, CA

10:29 PM PDT on September 14, 2014 (GMT -0700)
CHINO CANYON | Change Station
CLOSE
Current Station
Personal Weather Station
Location: Palm Springs, CA
Elevation: 630 ft
Nearby Weather Stations

Elev 630 ft 33.85 °N, 116.55 °W | Updated 26 minutes ago

Clear
Clear
94.9 °F
Feels Like 93 °F
N
2.3
Wind Variable Wind from West
Gusts 2.3 mph

Today
High -- | Low -- °F
--% Chance of Precip.
Yesterday
High -- | Low -- °F
Precip. -- in
6:28 AM 6:54 PM
Waning Gibbous, 59% visible
Pressure 29.73 in
Visibility 10.0 miles
Clouds Clear
Heat Index 93 °F
Dew Point 55 °F
Humidity 26%
Rainfall 0.00 in
Snow Depth 0 in , 0 in , 0 in
UV 0 out of 12
Pollen 5.80 out of 12
Ozone Good
Flu Activity Not available.
METAR KPSP 150453Z 22003KT 10SM CLR 36/16 A2974 RMK AO2 SLP065 T03560156

More Conditions Fewer Conditions

Pressure 29.73 in
Visibility 10.0 miles
Clouds Clear
Heat Index 93 °F
Dew Point 55 °F
Humidity 26%
Rainfall 0.00 in
Snow Depth 0 in , 0 in , 0 in
UV 0 out of 12
Pollen 5.80 out of 12
Ozone Good
Flu Activity Not available.
METAR KPSP 150453Z 22003KT 10SM CLR 36/16 A2974 RMK AO2 SLP065 T03560156

More Conditions Fewer Conditions

10-Day Weather Forecast

Almanac

Astronomy

Sep. 14, 2014 Rise Set
Actual Time 6:28 AM PDT 6:54 PM PDT
Civil Twilight 6:03 AM PDT 7:19 PM PDT
Nautical Twilight 5:34 AM PDT 7:48 PM PDT
Astronomical Twilight 5:04 AM PDT 8:18 PM PDT
Moon 11:06 PM PDT (9/14) 12:23 PM PDT (9/14)
Length of Visible Light 13h 15m
Length of Day
12h 25m
Tomorrow will be 2m 5s shorter.
Waning Gibbous, 59% of the Moon is Illuminated
Sep 15
Waning Gibbous
Sep 15
Last Quarter
Sep 24
New
Oct 1
First Quarter
Oct 8
Full

Yesterday's Extremes

State Highs State Lows

Community

WunderPhotos

Upload Photos

1,753,414 photos uploaded!

Nearby

Air Quality

  Air Quality AQ Index Pollutant
Yesterday Moderate
OZONE
Yesterday Good
PM10
Current Good
OZONE
Monday Moderate
OZONE
Monday Good
PM10
Monday Good
CO
Monday Good
NO2

Snow Depth

Station Depth Elevation
Adin Mountain 0 in 6200 ft
Monitor Pass 0 in 8350 ft
Tahoe City Cross 0 in 6750 ft
Summit Meadow 1 in 9122 ft
Spratt Creek 0 in 6200 ft

Earthquake Activity

City Distance Mag. Time & Date
San Jacinto, California 23 miles 3.1 3:16 PM PDT
2014-09-14
Ridgecrest, California 128 miles 3.3 5:20 AM PDT
2014-09-12
Minimum magnitude displayed is 2.5.

Coastal Water Temperatures

Place Temperature
No Stations Reporting

Nearby Weather Stations